sensor_id;sensor_type;location;lat;lon;timestamp;P1;durP1;ratioP1;P2;durP2;ratioP2
55663;SDS011;41540;57.880;12.164;2023-05-16T00:03:46;8.23;;;7.63;;
55663;SDS011;41540;57.880;12.164;2023-05-16T00:44:08;7.25;;;6.75;;
55663;SDS011;41540;57.880;12.164;2023-05-16T00:54:09;8.40;;;7.70;;
55663;SDS011;41540;57.880;12.164;2023-05-16T01:04:09;8.60;;;7.90;;
55663;SDS011;41540;57.880;12.164;2023-05-16T01:24:17;10.25;;;9.45;;
55663;SDS011;41540;57.880;12.164;2023-05-16T01:34:20;9.23;;;8.52;;
55663;SDS011;41540;57.880;12.164;2023-05-16T01:44:22;10.38;;;9.48;;
55663;SDS011;41540;57.880;12.164;2023-05-16T01:54:24;9.25;;;8.55;;
55663;SDS011;41540;57.880;12.164;2023-05-16T02:04:24;9.90;;;9.00;;
55663;SDS011;41540;57.880;12.164;2023-05-16T02:14:25;10.20;;;9.38;;
55663;SDS011;41540;57.880;12.164;2023-05-16T02:24:25;10.65;;;9.88;;
55663;SDS011;41540;57.880;12.164;2023-05-16T02:34:25;11.32;;;10.45;;
55663;SDS011;41540;57.880;12.164;2023-05-16T02:44:26;12.38;;;11.45;;
55663;SDS011;41540;57.880;12.164;2023-05-16T02:54:26;11.68;;;10.70;;
55663;SDS011;41540;57.880;12.164;2023-05-16T03:04:26;11.88;;;10.90;;
55663;SDS011;41540;57.880;12.164;2023-05-16T03:14:27;11.00;;;9.90;;
55663;SDS011;41540;57.880;12.164;2023-05-16T03:24:27;10.88;;;10.02;;
55663;SDS011;41540;57.880;12.164;2023-05-16T03:34:27;12.52;;;11.43;;
55663;SDS011;41540;57.880;12.164;2023-05-16T03:44:27;11.63;;;10.68;;
55663;SDS011;41540;57.880;12.164;2023-05-16T03:54:27;10.88;;;9.98;;
55663;SDS011;41540;57.880;12.164;2023-05-16T04:04:28;9.63;;;8.90;;
55663;SDS011;41540;57.880;12.164;2023-05-16T04:14:28;9.25;;;8.55;;
55663;SDS011;41540;57.880;12.164;2023-05-16T04:24:28;7.88;;;7.38;;
55663;SDS011;41540;57.880;12.164;2023-05-16T04:34:29;7.38;;;6.88;;
55663;SDS011;41540;57.880;12.164;2023-05-16T04:44:29;8.03;;;7.37;;
55663;SDS011;41540;57.880;12.164;2023-05-16T04:54:30;6.80;;;6.30;;
55663;SDS011;41540;57.880;12.164;2023-05-16T05:04:30;5.28;;;4.97;;
55663;SDS011;41540;57.880;12.164;2023-05-16T05:14:30;5.85;;;5.32;;
55663;SDS011;41540;57.880;12.164;2023-05-16T05:24:30;5.10;;;4.78;;
55663;SDS011;41540;57.880;12.164;2023-05-16T05:34:31;6.93;;;4.25;;
55663;SDS011;41540;57.880;12.164;2023-05-16T05:44:32;7.05;;;4.13;;
55663;SDS011;41540;57.880;12.164;2023-05-16T05:54:32;10.40;;;5.20;;
55663;SDS011;41540;57.880;12.164;2023-05-16T06:04:32;5.82;;;5.38;;
55663;SDS011;41540;57.880;12.164;2023-05-16T06:14:33;6.07;;;4.80;;
55663;SDS011;41540;57.880;12.164;2023-05-16T06:24:33;5.28;;;4.40;;
55663;SDS011;41540;57.880;12.164;2023-05-16T06:34:33;5.95;;;4.13;;
55663;SDS011;41540;57.880;12.164;2023-05-16T06:44:34;3.58;;;3.33;;
55663;SDS011;41540;57.880;12.164;2023-05-16T06:54:34;5.25;;;4.50;;
55663;SDS011;41540;57.880;12.164;2023-05-16T07:04:34;4.43;;;4.00;;
55663;SDS011;41540;57.880;12.164;2023-05-16T07:24:37;5.15;;;4.65;;
55663;SDS011;41540;57.880;12.164;2023-05-16T07:34:38;4.07;;;3.70;;
55663;SDS011;41540;57.880;12.164;2023-05-16T09:38:20;6.10;;;3.50;;
55663;SDS011;41540;57.880;12.164;2023-05-16T09:48:21;3.93;;;2.50;;
55663;SDS011;41540;57.880;12.164;2023-05-16T19:17:55;8.77;;;6.63;;
55663;SDS011;41540;57.880;12.164;2023-05-16T19:27:58;9.15;;;5.63;;
55663;SDS011;41540;57.880;12.164;2023-05-16T19:38:05;7.53;;;6.80;;
55663;SDS011;41540;57.880;12.164;2023-05-16T19:48:08;8.90;;;6.88;;
55663;SDS011;41540;57.880;12.164;2023-05-16T21:22:07;13.18;;;11.98;;
55663;SDS011;41540;57.880;12.164;2023-05-16T21:32:12;17.25;;;12.57;;
55663;SDS011;41540;57.880;12.164;2023-05-16T21:42:17;17.45;;;10.57;;
55663;SDS011;41540;57.880;12.164;2023-05-16T21:52:21;27.10;;;9.88;;
55663;SDS011;41540;57.880;12.164;2023-05-16T22:02:27;23.40;;;8.10;;
